PWSweather.com
Personal Weather Stations
Station Observations
AC5JC
Greenleaf Peninsula, Waco, Waco, TX 76710

Greenleaf Peninsula, WacoWaco, TX 76710

Lat: 31.565, Lon: -97.198

Elevation: 570

Station Type: Ambient WS-1400IP

http://ac5jc.dyndns.org

High Low Average
Temperature 87.8°F31.0°C 74.1°F23.4°C 79.3°F26.3°C
Dew Point 73.6°F23.1°C 65.9°F18.8°C 70.6°F21.4°C
Winds 11.7 mph 18.8 kmh Calm Calm 3.0 mph E4.8 kmh E
Wind Gusts 24.8 mph39.9 kmh -- 6.0 mph9.7 kmh
Humidity 97% 51% 77%
Pressure 29.47 in998.0 mb 29.36 in994.2 mb -
Precipitation 0.00 in0.0 mm - -
Hour Temp Dew Point Humidity Winds Wind Gusts Pressure Precip Precip Rate Daily Precip Total
12:00 AM 74.3°F23.5°C 72.5°F22.5°C 94% 2.2 mph E3.5 kmh E 4.9 mph7.9 kmh 29.42 in996.3 mb 0.00 in0.0 mm 0.00 in0.0 mm 0.00 in0.0 mm
12:05 AM 74.3°F23.5°C 72.5°F22.5°C 94% 3.1 mph ESE5.0 kmh ESE 7.4 mph11.9 kmh 29.42 in996.3 mb 0.00 in0.0 mm 0.00 in0.0 mm 0.00 in0.0 mm
12:10 AM 74.3°F23.5°C 72.5°F22.5°C 94% 1.9 mph SE3.1 kmh SE 4.9 mph7.9 kmh 29.41 in995.9 mb 0.00 in0.0 mm 0.00 in0.0 mm 0.00 in0.0 mm
12:15 AM 74.5°F23.6°C 72.7°F22.6°C 94% 2.8 mph SE4.5 kmh SE 4.9 mph7.9 kmh 29.41 in995.9 mb 0.00 in0.0 mm 0.00 in0.0 mm 0.00 in0.0 mm
12:20 AM 74.5°F23.6°C 72.7°F22.6°C 94% 4.0 mph SSE6.4 kmh SSE 9.8 mph15.8 kmh 29.41 in995.9 mb 0.00 in0.0 mm 0.00 in0.0 mm 0.00 in0.0 mm
12:25 AM 74.5°F23.6°C 72.8°F22.7°C 95% 2.8 mph ESE4.5 kmh ESE 7.4 mph11.9 kmh 29.41 in995.9 mb 0.00 in0.0 mm 0.00 in0.0 mm 0.00 in0.0 mm
12:30 AM 74.5°F23.6°C 73.0°F22.8°C 95% 3.1 mph ESE5.0 kmh ESE 7.4 mph11.9 kmh 29.41 in995.9 mb 0.00 in0.0 mm 0.00 in0.0 mm 0.00 in0.0 mm
12:35 AM 74.7°F23.7°C 73.2°F22.9°C 95% 3.2 mph SE5.1 kmh SE 7.4 mph11.9 kmh 29.41 in995.9 mb 0.00 in0.0 mm 0.00 in0.0 mm 0.00 in0.0 mm
12:40 AM 74.7°F23.7°C 73.2°F22.9°C 95% 2.2 mph E3.5 kmh E 4.9 mph7.9 kmh 29.41 in995.9 mb 0.00 in0.0 mm 0.00 in0.0 mm 0.00 in0.0 mm
12:45 AM 74.7°F23.7°C 73.2°F22.9°C 95% 0.3 mph ESE0.5 kmh ESE 2.5 mph4.0 kmh 29.41 in995.9 mb 0.00 in0.0 mm 0.00 in0.0 mm 0.00 in0.0 mm
12:50 AM 74.7°F23.7°C 73.2°F22.9°C 95% 2.0 mph ESE3.2 kmh ESE 4.9 mph7.9 kmh 29.42 in996.3 mb 0.00 in0.0 mm 0.00 in0.0 mm 0.00 in0.0 mm
12:55 AM 74.7°F23.7°C 73.2°F22.9°C 95% 3.8 mph E6.1 kmh E 7.4 mph11.9 kmh 29.41 in995.9 mb 0.00 in0.0 mm 0.00 in0.0 mm 0.00 in0.0 mm
01:00 AM 74.7°F23.7°C 73.2°F22.9°C 95% 2.0 mph ESE3.2 kmh ESE 4.9 mph7.9 kmh 29.41 in995.9 mb 0.00 in0.0 mm 0.00 in0.0 mm 0.00 in0.0 mm
01:05 AM 74.7°F23.7°C 73.2°F22.9°C 95% 3.4 mph E5.5 kmh E 7.4 mph11.9 kmh 29.41 in995.9 mb 0.00 in0.0 mm 0.00 in0.0 mm 0.00 in0.0 mm
01:10 AM 74.7°F23.7°C 73.2°F22.9°C 95% 3.0 mph ESE4.8 kmh ESE 7.4 mph11.9 kmh 29.42 in996.3 mb 0.00 in0.0 mm 0.00 in0.0 mm 0.00 in0.0 mm
01:15 AM 74.8°F23.8°C 73.3°F22.9°C 95% 4.6 mph E7.4 kmh E 12.3 mph19.8 kmh 29.41 in995.9 mb 0.00 in0.0 mm 0.00 in0.0 mm 0.00 in0.0 mm
01:20 AM 74.8°F23.8°C 73.0°F22.8°C 94% 2.8 mph E4.5 kmh E 4.9 mph7.9 kmh 29.41 in995.9 mb 0.00 in0.0 mm 0.00 in0.0 mm 0.00 in0.0 mm
01:25 AM 74.8°F23.8°C 73.0°F22.8°C 94% 3.6 mph ESE5.8 kmh ESE 9.8 mph15.8 kmh 29.42 in996.3 mb 0.00 in0.0 mm 0.00 in0.0 mm 0.00 in0.0 mm
01:30 AM 74.8°F23.8°C 73.0°F22.8°C 94% 1.8 mph E2.9 kmh E 4.9 mph7.9 kmh 29.41 in995.9 mb 0.00 in0.0 mm 0.00 in0.0 mm 0.00 in0.0 mm
01:35 AM 74.8°F23.8°C 73.0°F22.8°C 94% 1.2 mph SE1.9 kmh SE 2.5 mph4.0 kmh 29.41 in995.9 mb 0.00 in0.0 mm 0.00 in0.0 mm 0.00 in0.0 mm
01:40 AM 74.8°F23.8°C 72.9°F22.7°C 94% 1.2 mph ESE1.9 kmh ESE 4.9 mph7.9 kmh 29.41 in995.9 mb 0.00 in0.0 mm 0.00 in0.0 mm 0.00 in0.0 mm
01:45 AM 74.7°F23.7°C 72.9°F22.7°C 94% 2.3 mph SE3.7 kmh SE 7.4 mph11.9 kmh 29.41 in995.9 mb 0.00 in0.0 mm 0.00 in0.0 mm 0.00 in0.0 mm
01:50 AM 74.7°F23.7°C 72.9°F22.7°C 94% 3.7 mph E6.0 kmh E 7.4 mph11.9 kmh 29.41 in995.9 mb 0.00 in0.0 mm 0.00 in0.0 mm 0.00 in0.0 mm
01:55 AM 74.6°F23.7°C 72.7°F22.6°C 94% 4.4 mph SE7.1 kmh SE 7.4 mph11.9 kmh 29.42 in996.3 mb 0.00 in0.0 mm 0.00 in0.0 mm 0.00 in0.0 mm
02:00 AM 74.5°F23.6°C 72.7°F22.6°C 94% 2.0 mph ESE3.2 kmh ESE 4.9 mph7.9 kmh 29.42 in996.3 mb 0.00 in0.0 mm 0.00 in0.0 mm 0.00 in0.0 mm
02:05 AM 74.5°F23.6°C 72.7°F22.6°C 94% 1.8 mph SSE2.9 kmh SSE 7.4 mph11.9 kmh 29.42 in996.3 mb 0.00 in0.0 mm 0.00 in0.0 mm 0.00 in0.0 mm
02:10 AM 74.5°F23.6°C 72.7°F22.6°C 94% 2.8 mph ESE4.5 kmh ESE 4.9 mph7.9 kmh 29.41 in995.9 mb 0.00 in0.0 mm 0.00 in0.0 mm 0.00 in0.0 mm
02:15 AM 74.5°F23.6°C 72.7°F22.6°C 94% 1.9 mph SE3.1 kmh SE 4.9 mph7.9 kmh 29.41 in995.9 mb 0.00 in0.0 mm 0.00 in0.0 mm 0.00 in0.0 mm
02:20 AM 74.5°F23.6°C 72.7°F22.6°C 94% 2.6 mph SE4.2 kmh SE 4.9 mph7.9 kmh 29.41 in995.9 mb 0.00 in0.0 mm 0.00 in0.0 mm 0.00 in0.0 mm
02:25 AM 74.5°F23.6°C 72.8°F22.7°C 94% 1.0 mph SE1.6 kmh SE 4.9 mph7.9 kmh 29.41 in995.9 mb 0.00 in0.0 mm 0.00 in0.0 mm 0.00 in0.0 mm
02:30 AM 74.3°F23.5°C 72.8°F22.7°C 95% 0.3 mph SE0.5 kmh SE 2.5 mph4.0 kmh 29.41 in995.9 mb 0.00 in0.0 mm 0.00 in0.0 mm 0.00 in0.0 mm
02:35 AM 74.2°F23.4°C 72.7°F22.6°C 95% 0.1 mph SE0.2 kmh SE 2.5 mph4.0 kmh 29.41 in995.9 mb 0.00 in0.0 mm 0.00 in0.0 mm 0.00 in0.0 mm
02:40 AM 74.1°F23.4°C 72.6°F22.6°C 95% 0.3 mph ESE0.5 kmh ESE 2.5 mph4.0 kmh 29.41 in995.9 mb 0.00 in0.0 mm 0.00 in0.0 mm 0.00 in0.0 mm
02:45 AM 74.1°F23.4°C 72.6°F22.6°C 95% 1.2 mph ESE1.9 kmh ESE 4.9 mph7.9 kmh 29.41 in995.9 mb 0.00 in0.0 mm 0.00 in0.0 mm 0.00 in0.0 mm
02:50 AM 74.1°F23.4°C 72.6°F22.6°C 95% 0.1 mph SE0.2 kmh SE 2.5 mph4.0 kmh 29.41 in995.9 mb 0.00 in0.0 mm 0.00 in0.0 mm 0.00 in0.0 mm
02:55 AM 74.1°F23.4°C 72.6°F22.6°C 95% 0.1 mph ESE0.2 kmh ESE 2.5 mph4.0 kmh 29.41 in995.9 mb 0.00 in0.0 mm 0.00 in0.0 mm 0.00 in0.0 mm
03:00 AM 74.1°F23.4°C 72.6°F22.6°C 95% 0.4 mph ESE0.6 kmh ESE 2.5 mph4.0 kmh 29.41 in995.9 mb 0.00 in0.0 mm 0.00 in0.0 mm 0.00 in0.0 mm
03:05 AM 74.1°F23.4°C 72.6°F22.6°C 95% Calm Calm -- 29.41 in995.9 mb 0.00 in0.0 mm 0.00 in0.0 mm 0.00 in0.0 mm
03:10 AM 74.1°F23.4°C 72.6°F22.6°C 95% 0.5 mph SSE0.8 kmh SSE 2.5 mph4.0 kmh 29.40 in995.6 mb 0.00 in0.0 mm 0.00 in0.0 mm 0.00 in0.0 mm
03:15 AM 74.2°F23.4°C 72.7°F22.6°C 95% Calm Calm -- 29.41 in995.9 mb 0.00 in0.0 mm 0.00 in0.0 mm 0.00 in0.0 mm
03:20 AM 74.1°F23.4°C 72.6°F22.6°C 95% Calm Calm -- 29.41 in995.9 mb 0.00 in0.0 mm 0.00 in0.0 mm 0.00 in0.0 mm
03:25 AM 74.1°F23.4°C 72.6°F22.6°C 95% Calm Calm -- 29.41 in995.9 mb 0.00 in0.0 mm 0.00 in0.0 mm 0.00 in0.0 mm
03:30 AM 74.1°F23.4°C 72.6°F22.6°C 95% Calm Calm 2.5 mph4.0 kmh 29.41 in995.9 mb 0.00 in0.0 mm 0.00 in0.0 mm 0.00 in0.0 mm
03:35 AM 74.3°F23.5°C 72.8°F22.7°C 95% Calm Calm -- 29.41 in995.9 mb 0.00 in0.0 mm 0.00 in0.0 mm 0.00 in0.0 mm
03:40 AM 74.3°F23.5°C 72.8°F22.7°C 95% Calm Calm -- 29.40 in995.6 mb 0.00 in0.0 mm 0.00 in0.0 mm 0.00 in0.0 mm
03:45 AM 74.3°F23.5°C 72.8°F22.7°C 95% 0.3 mph ENE0.5 kmh ENE 2.5 mph4.0 kmh 29.41 in995.9 mb 0.00 in0.0 mm 0.00 in0.0 mm 0.00 in0.0 mm
03:50 AM 74.3°F23.5°C 72.8°F22.7°C 95% Calm Calm -- 29.41 in995.9 mb 0.00 in0.0 mm 0.00 in0.0 mm 0.00 in0.0 mm
03:55 AM 74.4°F23.6°C 72.9°F22.7°C 95% Calm Calm -- 29.41 in995.9 mb 0.00 in0.0 mm 0.00 in0.0 mm 0.00 in0.0 mm
04:00 AM 74.3°F23.5°C 72.8°F22.7°C 95% Calm Calm -- 29.40 in995.6 mb 0.00 in0.0 mm 0.00 in0.0 mm 0.00 in0.0 mm
04:05 AM 74.3°F23.5°C 72.8°F22.7°C 95% Calm Calm -- 29.41 in995.9 mb 0.00 in0.0 mm 0.00 in0.0 mm 0.00 in0.0 mm
04:10 AM 74.3°F23.5°C 72.8°F22.7°C 95% Calm Calm -- 29.41 in995.9 mb 0.00 in0.0 mm 0.00 in0.0 mm 0.00 in0.0 mm
04:15 AM 74.1°F23.4°C 72.9°F22.7°C 96% Calm Calm -- 29.41 in995.9 mb 0.00 in0.0 mm 0.00 in0.0 mm 0.00 in0.0 mm
04:20 AM 74.1°F23.4°C 72.9°F22.7°C 96% Calm Calm -- 29.41 in995.9 mb 0.00 in0.0 mm 0.00 in0.0 mm 0.00 in0.0 mm
04:25 AM 74.1°F23.4°C 72.9°F22.7°C 96% Calm Calm -- 29.41 in995.9 mb 0.00 in0.0 mm 0.00 in0.0 mm 0.00 in0.0 mm
04:30 AM 74.1°F23.4°C 72.9°F22.7°C 96% Calm Calm -- 29.41 in995.9 mb 0.00 in0.0 mm 0.00 in0.0 mm 0.00 in0.0 mm
04:35 AM 74.1°F23.4°C 72.9°F22.7°C 96% Calm Calm -- 29.41 in995.9 mb 0.00 in0.0 mm 0.00 in0.0 mm 0.00 in0.0 mm
04:40 AM 74.1°F23.4°C 72.9°F22.7°C 96% Calm Calm -- 29.41 in995.9 mb 0.00 in0.0 mm 0.00 in0.0 mm 0.00 in0.0 mm
04:45 AM 74.1°F23.4°C 72.9°F22.7°C 96% Calm Calm -- 29.41 in995.9 mb 0.00 in0.0 mm 0.00 in0.0 mm 0.00 in0.0 mm
04:50 AM 74.1°F23.4°C 72.9°F22.7°C 96% Calm Calm -- 29.42 in996.3 mb 0.00 in0.0 mm 0.00 in0.0 mm 0.00 in0.0 mm
04:55 AM 74.1°F23.4°C 72.9°F22.7°C 96% Calm Calm -- 29.41 in995.9 mb 0.00 in0.0 mm 0.00 in0.0 mm 0.00 in0.0 mm
05:00 AM 74.1°F23.4°C 72.9°F22.7°C 96% Calm Calm -- 29.42 in996.3 mb 0.00 in0.0 mm 0.00 in0.0 mm 0.00 in0.0 mm
05:05 AM 74.1°F23.4°C 72.9°F22.7°C 96% Calm Calm -- 29.41 in995.9 mb 0.00 in0.0 mm 0.00 in0.0 mm 0.00 in0.0 mm
05:10 AM 74.1°F23.4°C 72.9°F22.7°C 96% Calm Calm -- 29.42 in996.3 mb 0.00 in0.0 mm 0.00 in0.0 mm 0.00 in0.0 mm
05:15 AM 74.3°F23.5°C 73.0°F22.8°C 96% Calm Calm -- 29.42 in996.3 mb 0.00 in0.0 mm 0.00 in0.0 mm 0.00 in0.0 mm
05:20 AM 74.4°F23.6°C 73.2°F22.9°C 96% Calm Calm -- 29.42 in996.3 mb 0.00 in0.0 mm 0.00 in0.0 mm 0.00 in0.0 mm
05:25 AM 74.3°F23.5°C 73.1°F22.8°C 96% Calm Calm -- 29.42 in996.3 mb 0.00 in0.0 mm 0.00 in0.0 mm 0.00 in0.0 mm
05:30 AM 74.3°F23.5°C 73.1°F22.8°C 96% Calm Calm -- 29.42 in996.3 mb 0.00 in0.0 mm 0.00 in0.0 mm 0.00 in0.0 mm
05:35 AM 74.2°F23.4°C 73.0°F22.8°C 96% Calm Calm -- 29.42 in996.3 mb 0.00 in0.0 mm 0.00 in0.0 mm 0.00 in0.0 mm
05:40 AM 74.1°F23.4°C 72.9°F22.7°C 96% Calm Calm -- 29.42 in996.3 mb 0.00 in0.0 mm 0.00 in0.0 mm 0.00 in0.0 mm
05:45 AM 74.1°F23.4°C 72.9°F22.7°C 96% Calm Calm -- 29.42 in996.3 mb 0.00 in0.0 mm 0.00 in0.0 mm 0.00 in0.0 mm
05:50 AM 74.1°F23.4°C 72.9°F22.7°C 96% Calm Calm -- 29.42 in996.3 mb 0.00 in0.0 mm 0.00 in0.0 mm 0.00 in0.0 mm
05:55 AM 74.1°F23.4°C 72.9°F22.7°C 96% Calm Calm -- 29.43 in996.6 mb 0.00 in0.0 mm 0.00 in0.0 mm 0.00 in0.0 mm
06:00 AM 74.1°F23.4°C 72.9°F22.7°C 96% Calm Calm -- 29.43 in996.6 mb 0.00 in0.0 mm 0.00 in0.0 mm 0.00 in0.0 mm
06:05 AM 74.1°F23.4°C 72.9°F22.7°C 96% Calm Calm 2.5 mph4.0 kmh 29.43 in996.6 mb 0.00 in0.0 mm 0.00 in0.0 mm 0.00 in0.0 mm
06:10 AM 74.1°F23.4°C 72.9°F22.7°C 96% 0.5 mph N0.8 kmh N 2.5 mph4.0 kmh 29.43 in996.6 mb 0.00 in0.0 mm 0.00 in0.0 mm 0.00 in0.0 mm
06:15 AM 74.1°F23.4°C 72.9°F22.7°C 96% Calm Calm -- 29.43 in996.6 mb 0.00 in0.0 mm 0.00 in0.0 mm 0.00 in0.0 mm
06:20 AM 74.1°F23.4°C 72.9°F22.7°C 96% Calm Calm -- 29.43 in996.6 mb 0.00 in0.0 mm 0.00 in0.0 mm 0.00 in0.0 mm
06:25 AM 74.1°F23.4°C 73.2°F22.9°C 97% Calm Calm -- 29.43 in996.6 mb 0.00 in0.0 mm 0.00 in0.0 mm 0.00 in0.0 mm
06:30 AM 74.1°F23.4°C 73.2°F22.9°C 97% Calm Calm -- 29.44 in997.0 mb 0.00 in0.0 mm 0.00 in0.0 mm 0.00 in0.0 mm
06:35 AM 74.3°F23.5°C 73.4°F23.0°C 97% 0.1 mph NNW0.2 kmh NNW 2.5 mph4.0 kmh 29.44 in997.0 mb 0.00 in0.0 mm 0.00 in0.0 mm 0.00 in0.0 mm
06:40 AM 74.5°F23.6°C 73.6°F23.1°C 97% 1.0 mph N1.6 kmh N 2.5 mph4.0 kmh 29.44 in997.0 mb 0.00 in0.0 mm 0.00 in0.0 mm 0.00 in0.0 mm
06:45 AM 74.5°F23.6°C 73.6°F23.1°C 97% 0.5 mph E0.8 kmh E 4.9 mph7.9 kmh 29.44 in997.0 mb 0.00 in0.0 mm 0.00 in0.0 mm 0.00 in0.0 mm
06:50 AM 74.5°F23.6°C 73.6°F23.1°C 97% 0.7 mph NE1.1 kmh NE 4.9 mph7.9 kmh 29.44 in997.0 mb 0.00 in0.0 mm 0.00 in0.0 mm 0.00 in0.0 mm
06:55 AM 74.5°F23.6°C 73.6°F23.1°C 97% 0.3 mph N0.5 kmh N 2.5 mph4.0 kmh 29.44 in997.0 mb 0.00 in0.0 mm 0.00 in0.0 mm 0.00 in0.0 mm
07:00 AM 74.5°F23.6°C 73.6°F23.1°C 97% 1.3 mph NNE2.1 kmh NNE 4.9 mph7.9 kmh 29.44 in997.0 mb 0.00 in0.0 mm 0.00 in0.0 mm 0.00 in0.0 mm
07:05 AM 74.5°F23.6°C 73.6°F23.1°C 97% 0.2 mph N0.3 kmh N 2.5 mph4.0 kmh 29.44 in997.0 mb 0.00 in0.0 mm 0.00 in0.0 mm 0.00 in0.0 mm
07:10 AM 74.5°F23.6°C 73.6°F23.1°C 97% 0.8 mph ENE1.3 kmh ENE 4.9 mph7.9 kmh 29.44 in997.0 mb 0.00 in0.0 mm 0.00 in0.0 mm 0.00 in0.0 mm
07:15 AM 74.5°F23.6°C 73.6°F23.1°C 97% 0.2 mph N0.3 kmh N 2.5 mph4.0 kmh 29.45 in997.3 mb 0.00 in0.0 mm 0.00 in0.0 mm 0.00 in0.0 mm
07:20 AM 74.5°F23.6°C 73.6°F23.1°C 97% Calm Calm 2.5 mph4.0 kmh 29.45 in997.3 mb 0.00 in0.0 mm 0.00 in0.0 mm 0.00 in0.0 mm
07:25 AM 74.5°F23.6°C 73.3°F22.9°C 96% 0.1 mph SE0.2 kmh SE 2.5 mph4.0 kmh 29.45 in997.3 mb 0.00 in0.0 mm 0.00 in0.0 mm 0.00 in0.0 mm
07:30 AM 74.5°F23.6°C 73.3°F22.9°C 96% 0.2 mph ENE0.3 kmh ENE 2.5 mph4.0 kmh 29.45 in997.3 mb 0.00 in0.0 mm 0.00 in0.0 mm 0.00 in0.0 mm
07:35 AM 74.5°F23.6°C 73.3°F22.9°C 96% 0.1 mph N0.2 kmh N 2.5 mph4.0 kmh 29.45 in997.3 mb 0.00 in0.0 mm 0.00 in0.0 mm 0.00 in0.0 mm
07:40 AM 74.7°F23.7°C 73.5°F23.1°C 96% 0.5 mph ENE0.8 kmh ENE 2.5 mph4.0 kmh 29.45 in997.3 mb 0.00 in0.0 mm 0.00 in0.0 mm 0.00 in0.0 mm
07:45 AM 74.7°F23.7°C 73.5°F23.1°C 96% 0.6 mph NE1.0 kmh NE 4.9 mph7.9 kmh 29.45 in997.3 mb 0.00 in0.0 mm 0.00 in0.0 mm 0.00 in0.0 mm
07:50 AM 74.7°F23.7°C 73.2°F22.9°C 95% 0.5 mph ENE0.8 kmh ENE 2.5 mph4.0 kmh 29.45 in997.3 mb 0.00 in0.0 mm 0.00 in0.0 mm 0.00 in0.0 mm
07:55 AM 74.7°F23.7°C 73.2°F22.9°C 95% 0.1 mph NE0.2 kmh NE 2.5 mph4.0 kmh 29.45 in997.3 mb 0.00 in0.0 mm 0.00 in0.0 mm 0.00 in0.0 mm
08:00 AM 74.8°F23.8°C 73.0°F22.8°C 94% 0.4 mph NW0.6 kmh NW 2.5 mph4.0 kmh 29.46 in997.6 mb 0.00 in0.0 mm 0.00 in0.0 mm 0.00 in0.0 mm
08:05 AM 74.8°F23.8°C 72.6°F22.6°C 93% 0.9 mph E1.4 kmh E 4.9 mph7.9 kmh 29.46 in997.6 mb 0.00 in0.0 mm 0.00 in0.0 mm 0.00 in0.0 mm
08:10 AM 75.0°F23.9°C 72.4°F22.4°C 92% 2.6 mph NNE4.2 kmh NNE 4.9 mph7.9 kmh 29.46 in997.6 mb 0.00 in0.0 mm 0.00 in0.0 mm 0.00 in0.0 mm
08:15 AM 75.0°F23.9°C 72.1°F22.3°C 91% 0.7 mph ENE1.1 kmh ENE 2.5 mph4.0 kmh 29.46 in997.6 mb 0.00 in0.0 mm 0.00 in0.0 mm 0.00 in0.0 mm
08:20 AM 75.6°F24.2°C 71.9°F22.2°C 88% 0.7 mph SE1.1 kmh SE 4.9 mph7.9 kmh 29.46 in997.6 mb 0.00 in0.0 mm 0.00 in0.0 mm 0.00 in0.0 mm
08:25 AM 75.6°F24.2°C 71.6°F22.0°C 87% 0.2 mph SE0.3 kmh SE 2.5 mph4.0 kmh 29.46 in997.6 mb 0.00 in0.0 mm 0.00 in0.0 mm 0.00 in0.0 mm
08:30 AM 75.6°F24.2°C 71.5°F21.9°C 87% 1.3 mph NE2.1 kmh NE 2.5 mph4.0 kmh 29.46 in997.6 mb 0.00 in0.0 mm 0.00 in0.0 mm 0.00 in0.0 mm
08:35 AM 75.7°F24.3°C 71.4°F21.9°C 86% 0.4 mph E0.6 kmh E 2.5 mph4.0 kmh 29.46 in997.6 mb 0.00 in0.0 mm 0.00 in0.0 mm 0.00 in0.0 mm
08:40 AM 76.5°F24.7°C 71.8°F22.1°C 85% Calm Calm 2.5 mph4.0 kmh 29.46 in997.6 mb 0.00 in0.0 mm 0.00 in0.0 mm 0.00 in0.0 mm
08:45 AM 76.5°F24.7°C 71.3°F21.8°C 84% 0.7 mph ENE1.1 kmh ENE 4.9 mph7.9 kmh 29.46 in997.6 mb 0.00 in0.0 mm 0.00 in0.0 mm 0.00 in0.0 mm
08:50 AM 76.5°F24.7°C 71.2°F21.8°C 84% 2.5 mph ESE4.0 kmh ESE 7.4 mph11.9 kmh 29.46 in997.6 mb 0.00 in0.0 mm 0.00 in0.0 mm 0.00 in0.0 mm
08:55 AM 76.5°F24.7°C 70.8°F21.6°C 83% 2.6 mph SSE4.2 kmh SSE 4.9 mph7.9 kmh 29.46 in997.6 mb 0.00 in0.0 mm 0.00 in0.0 mm 0.00 in0.0 mm
09:00 AM 77.2°F25.1°C 70.5°F21.4°C 80% 3.2 mph SE5.1 kmh SE 4.9 mph7.9 kmh 29.47 in998.0 mb 0.00 in0.0 mm 0.00 in0.0 mm 0.00 in0.0 mm
09:05 AM 77.2°F25.1°C 70.1°F21.2°C 79% 2.9 mph E4.7 kmh E 7.4 mph11.9 kmh 29.46 in997.6 mb 0.00 in0.0 mm 0.00 in0.0 mm 0.00 in0.0 mm
09:10 AM 77.2°F25.1°C 69.6°F20.9°C 78% 0.4 mph NE0.6 kmh NE 2.5 mph4.0 kmh 29.46 in997.6 mb 0.00 in0.0 mm 0.00 in0.0 mm 0.00 in0.0 mm
09:15 AM 77.4°F25.2°C 68.8°F20.4°C 75% 2.2 mph N3.5 kmh N 4.9 mph7.9 kmh 29.47 in998.0 mb 0.00 in0.0 mm 0.00 in0.0 mm 0.00 in0.0 mm
09:20 AM 78.3°F25.7°C 68.8°F20.4°C 73% 1.6 mph SE2.6 kmh SE 4.9 mph7.9 kmh 29.47 in998.0 mb 0.00 in0.0 mm 0.00 in0.0 mm 0.00 in0.0 mm
09:25 AM 78.6°F25.9°C 67.9°F19.9°C 70% 2.2 mph ESE3.5 kmh ESE 4.9 mph7.9 kmh 29.46 in997.6 mb 0.00 in0.0 mm 0.00 in0.0 mm 0.00 in0.0 mm
09:30 AM 78.9°F26.1°C 68.1°F20.1°C 70% 2.2 mph E3.5 kmh E 4.9 mph7.9 kmh 29.47 in998.0 mb 0.00 in0.0 mm 0.00 in0.0 mm 0.00 in0.0 mm
09:35 AM 79.2°F26.2°C 68.4°F20.2°C 70% 1.6 mph N2.6 kmh N 4.9 mph7.9 kmh 29.47 in998.0 mb 0.00 in0.0 mm 0.00 in0.0 mm 0.00 in0.0 mm
09:40 AM 80.6°F27.0°C 69.3°F20.7°C 68% 2.7 mph ESE4.3 kmh ESE 4.9 mph7.9 kmh 29.47 in998.0 mb 0.00 in0.0 mm 0.00 in0.0 mm 0.00 in0.0 mm
09:45 AM 80.6°F27.0°C 69.3°F20.7°C 69% 1.6 mph NNE2.6 kmh NNE 4.9 mph7.9 kmh 29.47 in998.0 mb 0.00 in0.0 mm 0.00 in0.0 mm 0.00 in0.0 mm
09:50 AM 80.7°F27.1°C 68.6°F20.3°C 67% 0.1 mph WSW0.2 kmh WSW 2.5 mph4.0 kmh 29.47 in998.0 mb 0.00 in0.0 mm 0.00 in0.0 mm 0.00 in0.0 mm
09:55 AM 81.1°F27.3°C 67.5°F19.7°C 63% 0.2 mph NNE0.3 kmh NNE 2.5 mph4.0 kmh 29.47 in998.0 mb 0.00 in0.0 mm 0.00 in0.0 mm 0.00 in0.0 mm
10:00 AM 82.9°F28.3°C 69.3°F20.7°C 64% 2.4 mph NE3.9 kmh NE 4.9 mph7.9 kmh 29.47 in998.0 mb 0.00 in0.0 mm 0.00 in0.0 mm 0.00 in0.0 mm
10:05 AM 82.8°F28.2°C 69.7°F20.9°C 65% 2.3 mph ENE3.7 kmh ENE 4.9 mph7.9 kmh 29.47 in998.0 mb 0.00 in0.0 mm 0.00 in0.0 mm 0.00 in0.0 mm
10:10 AM 82.8°F28.2°C 69.4°F20.8°C 64% 2.2 mph SE3.5 kmh SE 4.9 mph7.9 kmh 29.47 in998.0 mb 0.00 in0.0 mm 0.00 in0.0 mm 0.00 in0.0 mm
10:15 AM 82.7°F28.2°C 69.3°F20.7°C 64% 1.9 mph NE3.1 kmh NE 4.9 mph7.9 kmh 29.47 in998.0 mb 0.00 in0.0 mm 0.00 in0.0 mm 0.00 in0.0 mm
10:20 AM 83.1°F28.4°C 69.3°F20.7°C 63% 1.2 mph NE1.9 kmh NE 4.9 mph7.9 kmh 29.47 in998.0 mb 0.00 in0.0 mm 0.00 in0.0 mm 0.00 in0.0 mm
10:25 AM 83.1°F28.4°C 69.7°F20.9°C 64% 2.6 mph NNE4.2 kmh NNE 4.9 mph7.9 kmh 29.47 in998.0 mb 0.00 in0.0 mm 0.00 in0.0 mm 0.00 in0.0 mm
10:30 AM 83.1°F28.4°C 70.0°F21.1°C 65% 4.1 mph NNE6.6 kmh NNE 7.4 mph11.9 kmh 29.46 in997.6 mb 0.00 in0.0 mm 0.00 in0.0 mm 0.00 in0.0 mm
10:35 AM 82.9°F28.3°C 70.3°F21.3°C 66% 4.9 mph E7.9 kmh E 7.4 mph11.9 kmh 29.46 in997.6 mb 0.00 in0.0 mm 0.00 in0.0 mm 0.00 in0.0 mm
10:40 AM 83.5°F28.6°C 70.0°F21.1°C 64% 4.2 mph ENE6.8 kmh ENE 9.8 mph15.8 kmh 29.47 in998.0 mb 0.00 in0.0 mm 0.00 in0.0 mm 0.00 in0.0 mm
10:45 AM 83.8°F28.8°C 69.7°F20.9°C 63% 3.7 mph E6.0 kmh E 7.4 mph11.9 kmh 29.47 in998.0 mb 0.00 in0.0 mm 0.00 in0.0 mm 0.00 in0.0 mm
10:50 AM 83.8°F28.8°C 69.5°F20.8°C 62% 1.7 mph E2.7 kmh E 7.4 mph11.9 kmh 29.47 in998.0 mb 0.00 in0.0 mm 0.00 in0.0 mm 0.00 in0.0 mm
10:55 AM 84.0°F28.9°C 69.6°F20.9°C 62% 2.1 mph NE3.4 kmh NE 4.9 mph7.9 kmh 29.47 in998.0 mb 0.00 in0.0 mm 0.00 in0.0 mm 0.00 in0.0 mm
11:00 AM 84.7°F29.3°C 70.2°F21.2°C 62% 1.6 mph E2.6 kmh E 4.9 mph7.9 kmh 29.47 in998.0 mb 0.00 in0.0 mm 0.00 in0.0 mm 0.00 in0.0 mm
11:05 AM 84.8°F29.3°C 71.1°F21.7°C 64% 4.0 mph SE6.4 kmh SE 9.8 mph15.8 kmh 29.47 in998.0 mb 0.00 in0.0 mm 0.00 in0.0 mm 0.00 in0.0 mm
11:10 AM 84.7°F29.3°C 70.0°F21.1°C 62% 3.8 mph ENE6.1 kmh ENE 7.4 mph11.9 kmh 29.47 in998.0 mb 0.00 in0.0 mm 0.00 in0.0 mm 0.00 in0.0 mm
11:15 AM 84.7°F29.3°C 69.6°F20.9°C 61% 4.1 mph ESE6.6 kmh ESE 15.0 mph24.1 kmh 29.46 in997.6 mb 0.00 in0.0 mm 0.00 in0.0 mm 0.00 in0.0 mm
11:20 AM 85.2°F29.6°C 70.2°F21.2°C 61% 5.1 mph E8.2 kmh E 9.8 mph15.8 kmh 29.47 in998.0 mb 0.00 in0.0 mm 0.00 in0.0 mm 0.00 in0.0 mm
11:25 AM 85.1°F29.5°C 70.7°F21.5°C 62% 3.0 mph SE4.8 kmh SE 7.4 mph11.9 kmh 29.46 in997.6 mb 0.00 in0.0 mm 0.00 in0.0 mm 0.00 in0.0 mm
11:30 AM 84.9°F29.4°C 70.5°F21.4°C 62% 3.4 mph E5.5 kmh E 4.9 mph7.9 kmh 29.46 in997.6 mb 0.00 in0.0 mm 0.00 in0.0 mm 0.00 in0.0 mm
11:35 AM 84.7°F29.3°C 69.8°F21.0°C 61% 2.1 mph ENE3.4 kmh ENE 4.9 mph7.9 kmh 29.46 in997.6 mb 0.00 in0.0 mm 0.00 in0.0 mm 0.00 in0.0 mm
11:40 AM 84.5°F29.2°C 69.7°F20.9°C 62% 2.1 mph ESE3.4 kmh ESE 4.9 mph7.9 kmh 29.46 in997.6 mb 0.00 in0.0 mm 0.00 in0.0 mm 0.00 in0.0 mm
11:45 AM 84.4°F29.1°C 69.7°F20.9°C 62% 1.9 mph SE3.1 kmh SE 4.9 mph7.9 kmh 29.46 in997.6 mb 0.00 in0.0 mm 0.00 in0.0 mm 0.00 in0.0 mm
11:50 AM 84.6°F29.2°C 68.7°F20.4°C 59% 2.1 mph ENE3.4 kmh ENE 4.9 mph7.9 kmh 29.45 in997.3 mb 0.00 in0.0 mm 0.00 in0.0 mm 0.00 in0.0 mm
11:55 AM 85.0°F29.4°C 69.4°F20.8°C 60% 2.2 mph E3.5 kmh E 7.4 mph11.9 kmh 29.45 in997.3 mb 0.00 in0.0 mm 0.00 in0.0 mm 0.00 in0.0 mm
12:00 PM 84.7°F29.3°C 69.9°F21.1°C 61% 2.2 mph E3.5 kmh E 4.9 mph7.9 kmh 29.46 in997.6 mb 0.00 in0.0 mm 0.00 in0.0 mm 0.00 in0.0 mm
12:05 PM 84.1°F28.9°C 69.6°F20.9°C 62% 2.6 mph ESE4.2 kmh ESE 4.9 mph7.9 kmh 29.45 in997.3 mb 0.00 in0.0 mm 0.00 in0.0 mm 0.00 in0.0 mm
12:10 PM 84.3°F29.1°C 69.1°F20.6°C 60% 1.2 mph E1.9 kmh E 4.9 mph7.9 kmh 29.45 in997.3 mb 0.00 in0.0 mm 0.00 in0.0 mm 0.00 in0.0 mm
12:15 PM 84.6°F29.2°C 69.2°F20.7°C 60% 3.7 mph E6.0 kmh E 4.9 mph7.9 kmh 29.45 in997.3 mb 0.00 in0.0 mm 0.00 in0.0 mm 0.00 in0.0 mm
12:20 PM 84.6°F29.2°C 70.2°F21.2°C 62% 4.4 mph E7.1 kmh E 7.4 mph11.9 kmh 29.45 in997.3 mb 0.00 in0.0 mm 0.00 in0.0 mm 0.00 in0.0 mm
12:25 PM 84.2°F29.0°C 69.9°F21.1°C 62% 3.7 mph E6.0 kmh E 7.4 mph11.9 kmh 29.44 in997.0 mb 0.00 in0.0 mm 0.00 in0.0 mm 0.00 in0.0 mm
12:30 PM 84.2°F29.0°C 70.4°F21.3°C 63% 2.9 mph E4.7 kmh E 9.8 mph15.8 kmh 29.45 in997.3 mb 0.00 in0.0 mm 0.00 in0.0 mm 0.00 in0.0 mm
12:35 PM 84.1°F28.9°C 72.8°F22.7°C 69% 3.6 mph SSE5.8 kmh SSE 7.4 mph11.9 kmh 29.44 in997.0 mb 0.00 in0.0 mm 0.00 in0.0 mm 0.00 in0.0 mm
12:40 PM 83.3°F28.5°C 72.7°F22.6°C 71% 2.3 mph E3.7 kmh E 4.9 mph7.9 kmh 29.44 in997.0 mb 0.00 in0.0 mm 0.00 in0.0 mm 0.00 in0.0 mm
12:45 PM 82.7°F28.2°C 70.7°F21.5°C 67% 1.5 mph E2.4 kmh E 7.4 mph11.9 kmh 29.44 in997.0 mb 0.00 in0.0 mm 0.00 in0.0 mm 0.00 in0.0 mm
12:50 PM 83.1°F28.4°C 68.6°F20.3°C 62% 0.7 mph SE1.1 kmh SE 4.9 mph7.9 kmh 29.44 in997.0 mb 0.00 in0.0 mm 0.00 in0.0 mm 0.00 in0.0 mm
12:55 PM 83.8°F28.8°C 67.9°F19.9°C 59% 1.5 mph N2.4 kmh N 2.5 mph4.0 kmh 29.43 in996.6 mb 0.00 in0.0 mm 0.00 in0.0 mm 0.00 in0.0 mm
01:00 PM 84.8°F29.3°C 68.6°F20.3°C 58% 2.1 mph E3.4 kmh E 4.9 mph7.9 kmh 29.43 in996.6 mb 0.00 in0.0 mm 0.00 in0.0 mm 0.00 in0.0 mm
01:05 PM 86.0°F30.0°C 69.2°F20.7°C 57% 4.1 mph SE6.6 kmh SE 7.4 mph11.9 kmh 29.43 in996.6 mb 0.00 in0.0 mm 0.00 in0.0 mm 0.00 in0.0 mm
01:10 PM 86.2°F30.1°C 69.6°F20.9°C 58% 2.8 mph ENE4.5 kmh ENE 4.9 mph7.9 kmh 29.43 in996.6 mb 0.00 in0.0 mm 0.00 in0.0 mm 0.00 in0.0 mm
01:15 PM 86.3°F30.2°C 69.8°F21.0°C 58% 4.1 mph ENE6.6 kmh ENE 9.8 mph15.8 kmh 29.43 in996.6 mb 0.00 in0.0 mm 0.00 in0.0 mm 0.00 in0.0 mm
01:20 PM 86.6°F30.3°C 69.4°F20.8°C 57% 3.8 mph NE6.1 kmh NE 9.8 mph15.8 kmh 29.42 in996.3 mb 0.00 in0.0 mm 0.00 in0.0 mm 0.00 in0.0 mm
01:25 PM 87.1°F30.6°C 69.1°F20.6°C 55% 3.5 mph ENE5.6 kmh ENE 7.4 mph11.9 kmh 29.42 in996.3 mb 0.00 in0.0 mm 0.00 in0.0 mm 0.00 in0.0 mm
01:30 PM 87.1°F30.6°C 69.4°F20.8°C 56% 5.1 mph NE8.2 kmh NE 9.8 mph15.8 kmh 29.42 in996.3 mb 0.00 in0.0 mm 0.00 in0.0 mm 0.00 in0.0 mm
01:35 PM 87.1°F30.6°C 69.2°F20.7°C 56% 3.5 mph NE5.6 kmh NE 7.4 mph11.9 kmh 29.42 in996.3 mb 0.00 in0.0 mm 0.00 in0.0 mm 0.00 in0.0 mm
01:40 PM 87.1°F30.6°C 68.8°F20.4°C 55% 2.6 mph ENE4.2 kmh ENE 4.9 mph7.9 kmh 29.42 in996.3 mb 0.00 in0.0 mm 0.00 in0.0 mm 0.00 in0.0 mm
01:45 PM 87.6°F30.9°C 68.9°F20.5°C 54% 4.9 mph NE7.9 kmh NE 9.8 mph15.8 kmh 29.41 in995.9 mb 0.00 in0.0 mm 0.00 in0.0 mm 0.00 in0.0 mm
01:50 PM 87.6°F30.9°C 68.4°F20.2°C 53% 7.8 mph NNE12.6 kmh NNE 12.3 mph19.8 kmh 29.41 in995.9 mb 0.00 in0.0 mm 0.00 in0.0 mm 0.00 in0.0 mm
01:55 PM 87.6°F30.9°C 69.0°F20.6°C 54% 4.0 mph NE6.4 kmh NE 12.3 mph19.8 kmh 29.41 in995.9 mb 0.00 in0.0 mm 0.00 in0.0 mm 0.00 in0.0 mm
02:00 PM 87.6°F30.9°C 68.5°F20.3°C 53% 5.3 mph E8.5 kmh E 12.3 mph19.8 kmh 29.41 in995.9 mb 0.00 in0.0 mm 0.00 in0.0 mm 0.00 in0.0 mm
02:05 PM 87.4°F30.8°C 68.5°F20.3°C 54% 6.2 mph E10.0 kmh E 12.3 mph19.8 kmh 29.41 in995.9 mb 0.00 in0.0 mm 0.00 in0.0 mm 0.00 in0.0 mm
02:10 PM 87.3°F30.7°C 68.8°F20.4°C 54% 3.6 mph E5.8 kmh E 12.3 mph19.8 kmh 29.40 in995.6 mb 0.00 in0.0 mm 0.00 in0.0 mm 0.00 in0.0 mm
02:15 PM 87.2°F30.7°C 69.5°F20.8°C 56% 4.1 mph E6.6 kmh E 7.4 mph11.9 kmh 29.40 in995.6 mb 0.00 in0.0 mm 0.00 in0.0 mm 0.00 in0.0 mm
02:20 PM 86.8°F30.4°C 68.5°F20.3°C 55% 4.4 mph E7.1 kmh E 7.4 mph11.9 kmh 29.40 in995.6 mb 0.00 in0.0 mm 0.00 in0.0 mm 0.00 in0.0 mm
02:25 PM 86.2°F30.1°C 68.7°F20.4°C 56% 3.3 mph E5.3 kmh E 7.4 mph11.9 kmh 29.39 in995.3 mb 0.00 in0.0 mm 0.00 in0.0 mm 0.00 in0.0 mm
02:30 PM 86.4°F30.2°C 68.2°F20.1°C 55% 7.0 mph E11.3 kmh E 9.8 mph15.8 kmh 29.39 in995.3 mb 0.00 in0.0 mm 0.00 in0.0 mm 0.00 in0.0 mm
02:35 PM 86.4°F30.2°C 68.4°F20.2°C 55% 3.2 mph ENE5.1 kmh ENE 7.4 mph11.9 kmh 29.39 in995.3 mb 0.00 in0.0 mm 0.00 in0.0 mm 0.00 in0.0 mm
02:40 PM 86.4°F30.2°C 68.3°F20.2°C 55% 2.6 mph N4.2 kmh N 4.9 mph7.9 kmh 29.39 in995.3 mb 0.00 in0.0 mm 0.00 in0.0 mm 0.00 in0.0 mm
02:45 PM 87.3°F30.7°C 68.7°F20.4°C 54% 4.0 mph E6.4 kmh E 9.8 mph15.8 kmh 29.39 in995.3 mb 0.00 in0.0 mm 0.00 in0.0 mm 0.00 in0.0 mm
02:50 PM 87.3°F30.7°C 68.3°F20.2°C 53% 2.3 mph E3.7 kmh E 12.3 mph19.8 kmh 29.39 in995.3 mb 0.00 in0.0 mm 0.00 in0.0 mm 0.00 in0.0 mm
02:55 PM 87.4°F30.8°C 67.8°F19.9°C 52% 5.9 mph ESE9.5 kmh ESE 9.8 mph15.8 kmh 29.39 in995.3 mb 0.00 in0.0 mm 0.00 in0.0 mm 0.00 in0.0 mm
03:00 PM 87.3°F30.7°C 68.0°F20.0°C 53% 5.8 mph E9.3 kmh E 12.3 mph19.8 kmh 29.39 in995.3 mb 0.00 in0.0 mm 0.00 in0.0 mm 0.00 in0.0 mm
03:05 PM 87.6°F30.9°C 68.0°F20.0°C 52% 3.1 mph E5.0 kmh E 7.4 mph11.9 kmh 29.38 in994.9 mb 0.00 in0.0 mm 0.00 in0.0 mm 0.00 in0.0 mm
03:10 PM 87.6°F30.9°C 67.8°F19.9°C 52% 3.2 mph N5.1 kmh N 7.4 mph11.9 kmh 29.38 in994.9 mb 0.00 in0.0 mm 0.00 in0.0 mm 0.00 in0.0 mm
03:15 PM 87.8°F31.0°C 67.5°F19.7°C 51% 4.9 mph E7.9 kmh E 12.3 mph19.8 kmh 29.38 in994.9 mb 0.00 in0.0 mm 0.00 in0.0 mm 0.00 in0.0 mm
03:20 PM 87.8°F31.0°C 68.5°F20.3°C 53% 4.1 mph ENE6.6 kmh ENE 7.4 mph11.9 kmh 29.38 in994.9 mb 0.00 in0.0 mm 0.00 in0.0 mm 0.00 in0.0 mm
03:25 PM 87.3°F30.7°C 67.9°F19.9°C 53% 2.9 mph ESE4.7 kmh ESE 4.9 mph7.9 kmh 29.37 in994.6 mb 0.00 in0.0 mm 0.00 in0.0 mm 0.00 in0.0 mm
03:30 PM 87.3°F30.7°C 67.5°F19.7°C 52% 3.9 mph E6.3 kmh E 9.8 mph15.8 kmh 29.37 in994.6 mb 0.00 in0.0 mm 0.00 in0.0 mm 0.00 in0.0 mm
03:35 PM 87.4°F30.8°C 67.1°F19.5°C 51% 2.9 mph NE4.7 kmh NE 7.4 mph11.9 kmh 29.37 in994.6 mb 0.00 in0.0 mm 0.00 in0.0 mm 0.00 in0.0 mm
03:40 PM 87.6°F30.9°C 67.3°F19.6°C 51% 5.7 mph E9.2 kmh E 9.8 mph15.8 kmh 29.37 in994.6 mb 0.00 in0.0 mm 0.00 in0.0 mm 0.00 in0.0 mm
03:45 PM 87.5°F30.8°C 68.0°F20.0°C 52% 5.6 mph E9.0 kmh E 9.8 mph15.8 kmh 29.36 in994.2 mb 0.00 in0.0 mm 0.00 in0.0 mm 0.00 in0.0 mm
03:50 PM 87.4°F30.8°C 68.4°F20.2°C 53% 2.9 mph E4.7 kmh E 4.9 mph7.9 kmh 29.36 in994.2 mb 0.00 in0.0 mm 0.00 in0.0 mm 0.00 in0.0 mm
03:55 PM 87.4°F30.8°C 68.1°F20.1°C 53% 4.9 mph ENE7.9 kmh ENE 7.4 mph11.9 kmh 29.37 in994.6 mb 0.00 in0.0 mm 0.00 in0.0 mm 0.00 in0.0 mm
04:00 PM 87.4°F30.8°C 67.9°F19.9°C 53% 4.1 mph NE6.6 kmh NE 9.8 mph15.8 kmh 29.36 in994.2 mb 0.00 in0.0 mm 0.00 in0.0 mm 0.00 in0.0 mm
04:05 PM 87.4°F30.8°C 68.7°F20.4°C 54% 3.8 mph ENE6.1 kmh ENE 9.8 mph15.8 kmh 29.36 in994.2 mb 0.00 in0.0 mm 0.00 in0.0 mm 0.00 in0.0 mm
04:10 PM 87.3°F30.7°C 69.8°F21.0°C 56% 5.4 mph SE8.7 kmh SE 9.8 mph15.8 kmh 29.36 in994.2 mb 0.00 in0.0 mm 0.00 in0.0 mm 0.00 in0.0 mm
04:15 PM 87.1°F30.6°C 69.5°F20.8°C 56% 5.7 mph E9.2 kmh E 12.3 mph19.8 kmh 29.37 in994.6 mb 0.00 in0.0 mm 0.00 in0.0 mm 0.00 in0.0 mm
04:20 PM 86.9°F30.5°C 69.7°F20.9°C 57% 2.8 mph E4.5 kmh E 4.9 mph7.9 kmh 29.37 in994.6 mb 0.00 in0.0 mm 0.00 in0.0 mm 0.00 in0.0 mm
04:25 PM 85.5°F29.7°C 69.0°F20.6°C 58% 2.4 mph NE3.9 kmh NE 4.9 mph7.9 kmh 29.37 in994.6 mb 0.00 in0.0 mm 0.00 in0.0 mm 0.00 in0.0 mm
04:30 PM 85.5°F29.7°C 69.0°F20.6°C 58% 3.1 mph NE5.0 kmh NE 7.4 mph11.9 kmh 29.37 in994.6 mb 0.00 in0.0 mm 0.00 in0.0 mm 0.00 in0.0 mm
04:35 PM 85.5°F29.7°C 68.8°F20.4°C 58% 2.4 mph NNE3.9 kmh NNE 4.9 mph7.9 kmh 29.37 in994.6 mb 0.00 in0.0 mm 0.00 in0.0 mm 0.00 in0.0 mm
04:40 PM 85.6°F29.8°C 68.4°F20.2°C 57% 3.5 mph ENE5.6 kmh ENE 7.4 mph11.9 kmh 29.37 in994.6 mb 0.00 in0.0 mm 0.00 in0.0 mm 0.00 in0.0 mm
04:45 PM 86.5°F30.3°C 68.6°F20.3°C 56% 3.6 mph NE5.8 kmh NE 7.4 mph11.9 kmh 29.37 in994.6 mb 0.00 in0.0 mm 0.00 in0.0 mm 0.00 in0.0 mm
04:50 PM 86.5°F30.3°C 68.4°F20.2°C 55% 5.2 mph ENE8.4 kmh ENE 9.8 mph15.8 kmh 29.37 in994.6 mb 0.00 in0.0 mm 0.00 in0.0 mm 0.00 in0.0 mm
04:55 PM 86.5°F30.3°C 68.4°F20.2°C 55% 3.7 mph E6.0 kmh E 7.4 mph11.9 kmh 29.37 in994.6 mb 0.00 in0.0 mm 0.00 in0.0 mm 0.00 in0.0 mm
05:00 PM 86.5°F30.3°C 68.4°F20.2°C 55% 3.4 mph NE5.5 kmh NE 9.8 mph15.8 kmh 29.37 in994.6 mb 0.00 in0.0 mm 0.00 in0.0 mm 0.00 in0.0 mm
05:05 PM 86.3°F30.2°C 68.2°F20.1°C 55% 6.4 mph NE10.3 kmh NE 9.8 mph15.8 kmh 29.37 in994.6 mb 0.00 in0.0 mm 0.00 in0.0 mm 0.00 in0.0 mm
05:10 PM 86.2°F30.1°C 68.4°F20.2°C 56% 2.4 mph NE3.9 kmh NE 7.4 mph11.9 kmh 29.37 in994.6 mb 0.00 in0.0 mm 0.00 in0.0 mm 0.00 in0.0 mm
05:15 PM 86.2°F30.1°C 68.2°F20.1°C 55% 3.9 mph ESE6.3 kmh ESE 7.4 mph11.9 kmh 29.37 in994.6 mb 0.00 in0.0 mm 0.00 in0.0 mm 0.00 in0.0 mm
05:20 PM 86.2°F30.1°C 68.1°F20.1°C 55% 4.4 mph NE7.1 kmh NE 9.8 mph15.8 kmh 29.36 in994.2 mb 0.00 in0.0 mm 0.00 in0.0 mm 0.00 in0.0 mm
05:25 PM 86.1°F30.1°C 68.1°F20.1°C 55% 4.2 mph NE6.8 kmh NE 7.4 mph11.9 kmh 29.37 in994.6 mb 0.00 in0.0 mm 0.00 in0.0 mm 0.00 in0.0 mm
05:30 PM 86.0°F30.0°C 68.7°F20.4°C 56% 3.4 mph E5.5 kmh E 7.4 mph11.9 kmh 29.37 in994.6 mb 0.00 in0.0 mm 0.00 in0.0 mm 0.00 in0.0 mm
05:35 PM 86.0°F30.0°C 67.3°F19.6°C 54% 5.4 mph E8.7 kmh E 12.3 mph19.8 kmh 29.37 in994.6 mb 0.00 in0.0 mm 0.00 in0.0 mm 0.00 in0.0 mm
05:40 PM 85.8°F29.9°C 66.1°F18.9°C 52% 4.9 mph E7.9 kmh E 9.8 mph15.8 kmh 29.36 in994.2 mb 0.00 in0.0 mm 0.00 in0.0 mm 0.00 in0.0 mm
05:45 PM 85.8°F29.9°C 66.1°F18.9°C 52% 5.0 mph E8.0 kmh E 9.8 mph15.8 kmh 29.36 in994.2 mb 0.00 in0.0 mm 0.00 in0.0 mm 0.00 in0.0 mm
05:50 PM 85.6°F29.8°C 65.9°F18.8°C 52% 4.9 mph SE7.9 kmh SE 15.0 mph24.1 kmh 29.37 in994.6 mb 0.00 in0.0 mm 0.00 in0.0 mm 0.00 in0.0 mm
05:55 PM 85.6°F29.8°C 66.0°F18.9°C 52% 3.8 mph SE6.1 kmh SE 12.3 mph19.8 kmh 29.37 in994.6 mb 0.00 in0.0 mm 0.00 in0.0 mm 0.00 in0.0 mm
06:00 PM 85.6°F29.8°C 66.5°F19.2°C 53% 1.8 mph SSE2.9 kmh SSE 7.4 mph11.9 kmh 29.37 in994.6 mb 0.00 in0.0 mm 0.00 in0.0 mm 0.00 in0.0 mm
06:05 PM 85.1°F29.5°C 66.3°F19.1°C 54% 1.4 mph E2.3 kmh E 4.9 mph7.9 kmh 29.37 in994.6 mb 0.00 in0.0 mm 0.00 in0.0 mm 0.00 in0.0 mm
06:10 PM 84.7°F29.3°C 66.2°F19.0°C 54% 4.2 mph E6.8 kmh E 9.8 mph15.8 kmh 29.37 in994.6 mb 0.00 in0.0 mm 0.00 in0.0 mm 0.00 in0.0 mm
06:15 PM 84.6°F29.2°C 66.1°F18.9°C 54% 2.1 mph NE3.4 kmh NE 4.9 mph7.9 kmh 29.37 in994.6 mb 0.00 in0.0 mm 0.00 in0.0 mm 0.00 in0.0 mm
06:20 PM 84.6°F29.2°C 66.6°F19.2°C 55% 2.1 mph E3.4 kmh E 4.9 mph7.9 kmh 29.37 in994.6 mb 0.00 in0.0 mm 0.00 in0.0 mm 0.00 in0.0 mm
06:25 PM 84.4°F29.1°C 66.4°F19.1°C 55% 1.5 mph SE2.4 kmh SE 4.9 mph7.9 kmh 29.38 in994.9 mb 0.00 in0.0 mm 0.00 in0.0 mm 0.00 in0.0 mm
06:30 PM 84.2°F29.0°C 66.6°F19.2°C 56% 3.7 mph E6.0 kmh E 7.4 mph11.9 kmh 29.38 in994.9 mb 0.00 in0.0 mm 0.00 in0.0 mm 0.00 in0.0 mm
06:35 PM 84.2°F29.0°C 66.8°F19.3°C 56% 4.0 mph SE6.4 kmh SE 7.4 mph11.9 kmh 29.38 in994.9 mb 0.00 in0.0 mm 0.00 in0.0 mm 0.00 in0.0 mm
06:40 PM 84.0°F28.9°C 67.3°F19.6°C 57% 2.7 mph E4.3 kmh E 4.9 mph7.9 kmh 29.38 in994.9 mb 0.00 in0.0 mm 0.00 in0.0 mm 0.00 in0.0 mm
06:45 PM 83.9°F28.8°C 67.7°F19.8°C 58% 2.8 mph E4.5 kmh E 7.4 mph11.9 kmh 29.38 in994.9 mb 0.00 in0.0 mm 0.00 in0.0 mm 0.00 in0.0 mm
06:50 PM 83.7°F28.7°C 67.8°F19.9°C 59% 3.0 mph SE4.8 kmh SE 7.4 mph11.9 kmh 29.38 in994.9 mb 0.00 in0.0 mm 0.00 in0.0 mm 0.00 in0.0 mm
06:55 PM 83.7°F28.7°C 67.8°F19.9°C 59% 2.6 mph E4.2 kmh E 7.4 mph11.9 kmh 29.39 in995.3 mb 0.00 in0.0 mm 0.00 in0.0 mm 0.00 in0.0 mm
07:00 PM 83.7°F28.7°C 68.1°F20.1°C 60% 4.0 mph E6.4 kmh E 12.3 mph19.8 kmh 29.38 in994.9 mb 0.00 in0.0 mm 0.00 in0.0 mm 0.00 in0.0 mm
07:05 PM 83.4°F28.6°C 68.5°F20.3°C 61% 9.9 mph SSE15.9 kmh SSE 15.0 mph24.1 kmh 29.39 in995.3 mb 0.00 in0.0 mm 0.00 in0.0 mm 0.00 in0.0 mm
07:10 PM 82.4°F28.0°C 69.7°F20.9°C 66% 7.7 mph S12.4 kmh S 15.0 mph24.1 kmh 29.39 in995.3 mb 0.00 in0.0 mm 0.00 in0.0 mm 0.00 in0.0 mm
07:15 PM 82.1°F27.8°C 70.5°F21.4°C 68% 5.9 mph SSE9.5 kmh SSE 9.8 mph15.8 kmh 29.39 in995.3 mb 0.00 in0.0 mm 0.00 in0.0 mm 0.00 in0.0 mm
07:20 PM 81.8°F27.7°C 70.7°F21.5°C 69% 5.4 mph ESE8.7 kmh ESE 12.3 mph19.8 kmh 29.40 in995.6 mb 0.00 in0.0 mm 0.00 in0.0 mm 0.00 in0.0 mm
07:25 PM 80.7°F27.1°C 70.4°F21.3°C 71% 9.5 mph SSE15.3 kmh SSE 17.4 mph28.0 kmh 29.41 in995.9 mb 0.00 in0.0 mm 0.00 in0.0 mm 0.00 in0.0 mm
07:30 PM 79.3°F26.3°C 69.9°F21.1°C 73% 8.2 mph E13.2 kmh E 24.8 mph39.9 kmh 29.41 in995.9 mb 0.00 in0.0 mm 0.00 in0.0 mm 0.00 in0.0 mm
07:35 PM 79.3°F26.3°C 70.6°F21.4°C 75% 11.7 mph ESE18.8 kmh ESE 19.9 mph32.0 kmh 29.41 in995.9 mb 0.00 in0.0 mm 0.00 in0.0 mm 0.00 in0.0 mm
07:40 PM 79.2°F26.2°C 70.9°F21.6°C 76% 7.7 mph ESE12.4 kmh ESE 15.0 mph24.1 kmh 29.41 in995.9 mb 0.00 in0.0 mm 0.00 in0.0 mm 0.00 in0.0 mm
07:45 PM 78.5°F25.8°C 70.4°F21.3°C 76% 9.7 mph E15.6 kmh E 17.4 mph28.0 kmh 29.41 in995.9 mb 0.00 in0.0 mm 0.00 in0.0 mm 0.00 in0.0 mm
07:50 PM 77.2°F25.1°C 69.6°F20.9°C 78% 7.2 mph ESE11.6 kmh ESE 12.3 mph19.8 kmh 29.42 in996.3 mb 0.00 in0.0 mm 0.00 in0.0 mm 0.00 in0.0 mm
07:55 PM 77.2°F25.1°C 69.8°F21.0°C 78% 7.1 mph ESE11.4 kmh ESE 12.3 mph19.8 kmh 29.42 in996.3 mb 0.00 in0.0 mm 0.00 in0.0 mm 0.00 in0.0 mm
08:00 PM 77.2°F25.1°C 70.1°F21.2°C 79% 6.0 mph SE9.7 kmh SE 9.8 mph15.8 kmh 29.42 in996.3 mb 0.00 in0.0 mm 0.00 in0.0 mm 0.00 in0.0 mm
08:05 PM 77.2°F25.1°C 70.5°F21.4°C 80% 6.1 mph ESE9.8 kmh ESE 9.8 mph15.8 kmh 29.42 in996.3 mb 0.00 in0.0 mm 0.00 in0.0 mm 0.00 in0.0 mm
08:10 PM 77.0°F25.0°C 70.3°F21.3°C 80% 6.7 mph SSE10.8 kmh SSE 12.3 mph19.8 kmh 29.42 in996.3 mb 0.00 in0.0 mm 0.00 in0.0 mm 0.00 in0.0 mm
08:15 PM 76.8°F24.9°C 70.5°F21.4°C 81% 8.0 mph E12.9 kmh E 15.0 mph24.1 kmh 29.42 in996.3 mb 0.00 in0.0 mm 0.00 in0.0 mm 0.00 in0.0 mm
08:20 PM 76.8°F24.9°C 70.5°F21.4°C 81% 3.9 mph ESE6.3 kmh ESE 7.4 mph11.9 kmh 29.42 in996.3 mb 0.00 in0.0 mm 0.00 in0.0 mm 0.00 in0.0 mm
08:25 PM 76.8°F24.9°C 70.5°F21.4°C 81% 7.1 mph E11.4 kmh E 9.8 mph15.8 kmh 29.42 in996.3 mb 0.00 in0.0 mm 0.00 in0.0 mm 0.00 in0.0 mm
08:30 PM 76.6°F24.8°C 70.3°F21.3°C 81% 6.7 mph E10.8 kmh E 12.3 mph19.8 kmh 29.42 in996.3 mb 0.00 in0.0 mm 0.00 in0.0 mm 0.00 in0.0 mm
08:35 PM 76.6°F24.8°C 70.3°F21.3°C 81% 6.5 mph ESE10.5 kmh ESE 12.3 mph19.8 kmh 29.42 in996.3 mb 0.00 in0.0 mm 0.00 in0.0 mm 0.00 in0.0 mm
08:40 PM 76.6°F24.8°C 70.3°F21.3°C 81% 8.9 mph SSE14.3 kmh SSE 15.0 mph24.1 kmh 29.42 in996.3 mb 0.00 in0.0 mm 0.00 in0.0 mm 0.00 in0.0 mm
08:45 PM 76.5°F24.7°C 70.2°F21.2°C 81% 3.7 mph SE6.0 kmh SE 7.4 mph11.9 kmh 29.42 in996.3 mb 0.00 in0.0 mm 0.00 in0.0 mm 0.00 in0.0 mm
08:50 PM 76.5°F24.7°C 70.4°F21.3°C 82% 3.2 mph SE5.1 kmh SE 7.4 mph11.9 kmh 29.42 in996.3 mb 0.00 in0.0 mm 0.00 in0.0 mm 0.00 in0.0 mm
08:55 PM 76.3°F24.6°C 70.4°F21.3°C 82% 3.7 mph ESE6.0 kmh ESE 7.4 mph11.9 kmh 29.42 in996.3 mb 0.00 in0.0 mm 0.00 in0.0 mm 0.00 in0.0 mm
09:00 PM 76.3°F24.6°C 70.4°F21.3°C 82% 3.7 mph SSE6.0 kmh SSE 9.8 mph15.8 kmh 29.41 in995.9 mb 0.00 in0.0 mm 0.00 in0.0 mm 0.00 in0.0 mm
09:05 PM 76.3°F24.6°C 70.7°F21.5°C 83% 2.8 mph E4.5 kmh E 7.4 mph11.9 kmh 29.41 in995.9 mb 0.00 in0.0 mm 0.00 in0.0 mm 0.00 in0.0 mm
09:10 PM 75.9°F24.4°C 70.4°F21.3°C 83% 3.9 mph ESE6.3 kmh ESE 7.4 mph11.9 kmh 29.42 in996.3 mb 0.00 in0.0 mm 0.00 in0.0 mm 0.00 in0.0 mm
09:15 PM 75.9°F24.4°C 70.4°F21.3°C 83% 3.4 mph E5.5 kmh E 7.4 mph11.9 kmh 29.42 in996.3 mb 0.00 in0.0 mm 0.00 in0.0 mm 0.00 in0.0 mm
09:20 PM 75.9°F24.4°C 70.4°F21.3°C 83% 4.5 mph E7.2 kmh E 9.8 mph15.8 kmh 29.42 in996.3 mb 0.00 in0.0 mm 0.00 in0.0 mm 0.00 in0.0 mm
09:25 PM 75.9°F24.4°C 70.4°F21.3°C 83% 3.6 mph SE5.8 kmh SE 7.4 mph11.9 kmh 29.42 in996.3 mb 0.00 in0.0 mm 0.00 in0.0 mm 0.00 in0.0 mm
09:30 PM 75.9°F24.4°C 70.4°F21.3°C 83% 3.0 mph E4.8 kmh E 7.4 mph11.9 kmh 29.42 in996.3 mb 0.00 in0.0 mm 0.00 in0.0 mm 0.00 in0.0 mm
09:35 PM 75.9°F24.4°C 70.4°F21.3°C 83% 4.2 mph SE6.8 kmh SE 9.8 mph15.8 kmh 29.42 in996.3 mb 0.00 in0.0 mm 0.00 in0.0 mm 0.00 in0.0 mm
09:40 PM 75.9°F24.4°C 70.0°F21.1°C 82% 3.3 mph E5.3 kmh E 7.4 mph11.9 kmh 29.42 in996.3 mb 0.00 in0.0 mm 0.00 in0.0 mm 0.00 in0.0 mm
09:45 PM 75.9°F24.4°C 70.0°F21.1°C 82% 3.2 mph E5.1 kmh E 4.9 mph7.9 kmh 29.42 in996.3 mb 0.00 in0.0 mm 0.00 in0.0 mm 0.00 in0.0 mm
09:50 PM 76.1°F24.5°C 70.2°F21.2°C 82% 1.6 mph ESE2.6 kmh ESE 2.5 mph4.0 kmh 29.42 in996.3 mb 0.00 in0.0 mm 0.00 in0.0 mm 0.00 in0.0 mm
09:55 PM 76.1°F24.5°C 70.2°F21.2°C 82% 3.3 mph E5.3 kmh E 9.8 mph15.8 kmh 29.43 in996.6 mb 0.00 in0.0 mm 0.00 in0.0 mm 0.00 in0.0 mm
10:00 PM 76.1°F24.5°C 70.2°F21.2°C 82% 3.2 mph E5.1 kmh E 7.4 mph11.9 kmh 29.42 in996.3 mb 0.00 in0.0 mm 0.00 in0.0 mm 0.00 in0.0 mm
10:05 PM 76.1°F24.5°C 70.2°F21.2°C 82% 2.0 mph ESE3.2 kmh ESE 7.4 mph11.9 kmh 29.42 in996.3 mb 0.00 in0.0 mm 0.00 in0.0 mm 0.00 in0.0 mm
10:10 PM 76.1°F24.5°C 70.2°F21.2°C 82% 0.2 mph SE0.3 kmh SE 2.5 mph4.0 kmh 29.42 in996.3 mb 0.00 in0.0 mm 0.00 in0.0 mm 0.00 in0.0 mm
10:15 PM 76.1°F24.5°C 70.5°F21.4°C 83% 1.5 mph E2.4 kmh E 4.9 mph7.9 kmh 29.42 in996.3 mb 0.00 in0.0 mm 0.00 in0.0 mm 0.00 in0.0 mm
10:20 PM 76.1°F24.5°C 70.5°F21.4°C 83% 3.5 mph E5.6 kmh E 7.4 mph11.9 kmh 29.42 in996.3 mb 0.00 in0.0 mm 0.00 in0.0 mm 0.00 in0.0 mm
10:25 PM 76.1°F24.5°C 70.6°F21.4°C 83% 0.6 mph SE1.0 kmh SE 4.9 mph7.9 kmh 29.43 in996.6 mb 0.00 in0.0 mm 0.00 in0.0 mm 0.00 in0.0 mm
10:30 PM 75.7°F24.3°C 70.5°F21.4°C 84% 1.9 mph ENE3.1 kmh ENE 2.5 mph4.0 kmh 29.42 in996.3 mb 0.00 in0.0 mm 0.00 in0.0 mm 0.00 in0.0 mm
10:35 PM 75.6°F24.2°C 70.6°F21.4°C 84% 0.5 mph E0.8 kmh E 2.5 mph4.0 kmh 29.43 in996.6 mb 0.00 in0.0 mm 0.00 in0.0 mm 0.00 in0.0 mm
10:40 PM 75.6°F24.2°C 70.8°F21.6°C 85% 0.4 mph E0.6 kmh E 2.5 mph4.0 kmh 29.43 in996.6 mb 0.00 in0.0 mm 0.00 in0.0 mm 0.00 in0.0 mm
10:45 PM 75.6°F24.2°C 70.9°F21.6°C 85% 0.3 mph E0.5 kmh E 2.5 mph4.0 kmh 29.42 in996.3 mb 0.00 in0.0 mm 0.00 in0.0 mm 0.00 in0.0 mm
10:50 PM 75.2°F24.0°C 70.8°F21.6°C 86% 1.1 mph E1.8 kmh E 4.9 mph7.9 kmh 29.42 in996.3 mb 0.00 in0.0 mm 0.00 in0.0 mm 0.00 in0.0 mm
10:55 PM 75.1°F23.9°C 71.0°F21.7°C 87% 1.1 mph E1.8 kmh E 2.5 mph4.0 kmh 29.42 in996.3 mb 0.00 in0.0 mm 0.00 in0.0 mm 0.00 in0.0 mm
11:00 PM 75.0°F23.9°C 71.2°F21.8°C 88% 1.2 mph ESE1.9 kmh ESE 4.9 mph7.9 kmh 29.42 in996.3 mb 0.00 in0.0 mm 0.00 in0.0 mm 0.00 in0.0 mm
11:05 PM 75.0°F23.9°C 71.3°F21.8°C 88% 0.8 mph E1.3 kmh E 4.9 mph7.9 kmh 29.43 in996.6 mb 0.00 in0.0 mm 0.00 in0.0 mm 0.00 in0.0 mm
11:10 PM 74.8°F23.8°C 71.3°F21.8°C 89% 0.1 mph E0.2 kmh E 2.5 mph4.0 kmh 29.42 in996.3 mb 0.00 in0.0 mm 0.00 in0.0 mm 0.00 in0.0 mm
11:15 PM 74.8°F23.8°C 71.3°F21.8°C 89% 0.3 mph ESE0.5 kmh ESE 2.5 mph4.0 kmh 29.42 in996.3 mb 0.00 in0.0 mm 0.00 in0.0 mm 0.00 in0.0 mm
11:20 PM 74.8°F23.8°C 71.3°F21.8°C 89% 0.2 mph E0.3 kmh E 2.5 mph4.0 kmh 29.42 in996.3 mb 0.00 in0.0 mm 0.00 in0.0 mm 0.00 in0.0 mm
11:25 PM 74.8°F23.8°C 71.3°F21.8°C 89% 0.1 mph E0.2 kmh E 2.5 mph4.0 kmh 29.42 in996.3 mb 0.00 in0.0 mm 0.00 in0.0 mm 0.00 in0.0 mm
11:30 PM 74.8°F23.8°C 71.6°F22.0°C 90% 0.1 mph E0.2 kmh E 2.5 mph4.0 kmh 29.42 in996.3 mb 0.00 in0.0 mm 0.00 in0.0 mm 0.00 in0.0 mm
11:35 PM 74.8°F23.8°C 71.7°F22.1°C 90% 0.5 mph SE0.8 kmh SE 2.5 mph4.0 kmh 29.41 in995.9 mb 0.00 in0.0 mm 0.00 in0.0 mm 0.00 in0.0 mm
11:40 PM 74.8°F23.8°C 71.7°F22.1°C 90% Calm Calm -- 29.41 in995.9 mb 0.00 in0.0 mm 0.00 in0.0 mm 0.00 in0.0 mm
11:45 PM 74.8°F23.8°C 71.6°F22.0°C 90% Calm Calm -- 29.41 in995.9 mb 0.00 in0.0 mm 0.00 in0.0 mm 0.00 in0.0 mm
11:50 PM 74.7°F23.7°C 71.7°F22.1°C 90% Calm Calm -- 29.41 in995.9 mb 0.00 in0.0 mm 0.00 in0.0 mm 0.00 in0.0 mm
11:55 PM 74.7°F23.7°C 71.9°F22.2°C 91% 0.5 mph E0.8 kmh E 4.9 mph7.9 kmh 29.41 in995.9 mb 0.00 in0.0 mm 0.00 in0.0 mm 0.00 in0.0 mm